Terminal Aerodrome Forecast
Issued by NWS

Home | Current Version | Previous Version | Graphics & Text | Print | Product List | Glossary On
Versions: 1 2 3 4 5 6 7 8 9 10 11 12 13 14
000
FTUS45 KGGW 141120
TAFOLF
TAF
KOLF 141120Z 1412/1512 30011KT P6SM OVC020
     FM142200 28009KT P6SM BKN035
     FM150700 VRB04KT P6SM OVC110=

USA.gov is the U.S. government's official web portal to all federal, state and local government web resources and services.